createdAt,value
2019-02-07T00:00:56.342Z,105.80
2019-02-07T00:03:26.063Z,104.40
2019-02-07T00:05:55.515Z,102.00
2019-02-07T00:08:25.132Z,108.27
2019-02-07T00:10:54.646Z,104.93
2019-02-07T00:13:24.270Z,110.57
2019-02-07T00:15:53.785Z,111.83
2019-02-07T00:18:23.417Z,114.00
2019-02-07T00:20:52.929Z,112.87
2019-02-07T00:23:22.404Z,109.40
2019-02-07T00:25:51.887Z,122.73
2019-02-07T00:28:21.333Z,122.90
2019-02-07T00:30:50.810Z,130.87
2019-02-07T00:33:20.323Z,136.77
2019-02-07T00:35:49.864Z,130.43
2019-02-07T00:38:19.371Z,140.67
2019-02-07T00:40:49.291Z,127.70
2019-02-07T00:43:18.740Z,130.80
2019-02-07T00:45:48.155Z,122.17
2019-02-07T00:48:19.213Z,131.73
2019-02-07T00:50:50.443Z,130.53
2019-02-07T00:53:19.897Z,118.10
2019-02-07T00:55:49.389Z,125.00
2019-02-07T00:58:18.909Z,110.57
2019-02-07T01:00:49.085Z,118.80
2019-02-07T01:03:18.598Z,108.50
2019-02-07T01:05:48.224Z,98.70
2019-02-07T01:08:17.666Z,104.60
2019-02-07T01:10:47.433Z,99.97
2019-02-07T01:13:16.945Z,102.73
2019-02-07T01:15:48.664Z,108.67
2019-02-07T01:18:18.568Z,89.53
2019-02-07T01:20:48.102Z,90.13
2019-02-07T01:23:17.907Z,96.47
2019-02-07T01:25:47.663Z,92.37
2019-02-07T01:28:17.103Z,90.37
2019-02-07T01:30:46.653Z,90.90
2019-02-07T01:33:16.566Z,88.07
2019-02-07T01:35:46.250Z,79.13
2019-02-07T01:38:15.761Z,83.23
2019-02-07T01:40:45.978Z,77.17
2019-02-07T01:43:15.412Z,80.07
2019-02-07T01:45:45.012Z,79.33
2019-02-07T01:48:14.817Z,76.27
2019-02-07T01:50:44.372Z,68.70
2019-02-07T01:53:13.845Z,67.20
2019-02-07T01:55:44.250Z,68.80
2019-02-07T01:58:13.616Z,69.17
2019-02-07T02:00:43.154Z,66.50
2019-02-07T02:03:12.898Z,71.60
2019-02-07T02:05:42.368Z,71.87
2019-02-07T02:08:11.943Z,74.03
2019-02-07T02:10:41.481Z,70.03
2019-02-07T02:13:10.997Z,70.27
2019-02-07T02:15:40.679Z,70.10
2019-02-07T02:18:10.386Z,71.90
2019-02-07T02:20:39.861Z,69.60
2019-02-07T02:23:09.434Z,69.27
2019-02-07T02:25:39.128Z,66.03
2019-02-07T02:28:08.675Z,67.03
2019-02-07T02:30:39.159Z,68.90
2019-02-07T02:33:08.775Z,71.67
2019-02-07T02:35:38.493Z,68.43
2019-02-07T02:38:08.025Z,63.33
2019-02-07T02:40:37.445Z,66.90
2019-02-07T02:43:07.860Z,67.53
2019-02-07T02:45:38.042Z,59.87
2019-02-07T02:48:07.716Z,67.40
2019-02-07T02:50:39.635Z,64.63
2019-02-07T02:53:09.353Z,60.53
2019-02-07T02:55:41.391Z,57.33
2019-02-07T02:58:10.995Z,58.87
2019-02-07T03:00:43.501Z,59.70
2019-02-07T03:03:24.111Z,60.53
2019-02-07T03:05:57.927Z,53.77
2019-02-07T03:08:35.555Z,59.03
2019-02-07T03:11:06.767Z,60.60
2019-02-07T03:13:54.231Z,59.57
2019-02-07T03:16:41.880Z,54.23
2019-02-07T03:19:16.001Z,57.70
2019-02-07T03:21:53.098Z,60.67
2019-02-07T03:24:24.185Z,58.27
2019-02-07T03:27:04.138Z,54.00
2019-02-07T03:29:51.360Z,53.87
2019-02-07T03:32:40.873Z,51.47
2019-02-07T03:35:30.598Z,55.83
2019-02-07T03:38:01.984Z,53.60
2019-02-07T03:40:39.380Z,54.97
2019-02-07T03:43:24.253Z,54.20
2019-02-07T03:46:03.098Z,58.13
2019-02-07T03:48:37.757Z,53.23
2019-02-07T03:51:18.885Z,52.17
2019-02-07T03:53:56.227Z,51.40
2019-02-07T03:56:27.379Z,48.67
2019-02-07T03:59:15.451Z,50.17
2019-02-07T04:01:46.734Z,48.50
2019-02-07T04:04:17.876Z,53.57
2019-02-07T04:06:49.028Z,50.43
2019-02-07T04:09:26.063Z,54.67
2019-02-07T04:12:13.841Z,52.47
2019-02-07T04:15:01.122Z,47.97
2019-02-07T04:17:38.808Z,51.70
2019-02-07T04:20:12.410Z,54.47
2019-02-07T04:22:43.571Z,53.57
2019-02-07T04:25:14.826Z,54.30
2019-02-07T04:28:01.382Z,53.73
2019-02-07T04:30:34.920Z,52.17
2019-02-07T04:33:24.560Z,52.47
2019-02-07T04:35:55.879Z,53.60
2019-02-07T04:38:26.964Z,53.27
2019-02-07T04:41:10.437Z,56.43
2019-02-07T04:43:53.710Z,58.47
2019-02-07T04:46:39.674Z,54.63
2019-02-07T04:49:26.999Z,54.07
2019-02-07T04:52:10.736Z,58.03
2019-02-07T04:54:56.953Z,56.53
2019-02-07T04:57:28.121Z,55.33
2019-02-07T05:00:29.860Z,59.30
2019-02-07T05:03:17.877Z,58.00
2019-02-07T05:05:49.059Z,65.23
2019-02-07T05:08:26.455Z,61.93
2019-02-07T05:11:00.398Z,60.93
2019-02-07T05:13:31.479Z,58.23
2019-02-07T05:16:03.129Z,65.17
2019-02-07T05:18:43.084Z,64.03
2019-02-07T05:21:17.192Z,61.87
2019-02-07T05:24:03.337Z,62.13
2019-02-07T05:26:34.471Z,64.17
2019-02-07T05:29:14.764Z,60.63
2019-02-07T05:31:45.915Z,62.37
2019-02-07T05:34:32.136Z,62.20
2019-02-07T05:37:19.714Z,59.90
2019-02-07T05:39:51.102Z,58.57
2019-02-07T05:42:22.678Z,52.63
2019-02-07T05:44:54.133Z,54.87
2019-02-07T05:47:41.885Z,57.10
2019-02-07T05:50:29.893Z,57.53
2019-02-07T05:53:01.011Z,54.43
2019-02-07T05:55:35.307Z,55.63
2019-02-07T05:58:06.825Z,50.83
2019-02-07T06:00:40.892Z,54.13
2019-02-07T06:03:27.670Z,52.03
2019-02-07T06:05:58.879Z,55.03
2019-02-07T06:08:31.453Z,53.40
2019-02-07T06:11:02.550Z,53.00
2019-02-07T06:13:34.028Z,50.60
2019-02-07T06:16:17.453Z,52.47
2019-02-07T06:18:57.631Z,49.17
2019-02-07T06:21:40.530Z,47.30
2019-02-07T06:24:30.029Z,51.67
2019-02-07T06:27:09.974Z,44.07
2019-02-07T06:29:50.434Z,46.07
2019-02-07T06:32:21.556Z,46.67
2019-02-07T06:35:07.923Z,44.43
2019-02-07T06:37:39.446Z,40.20
2019-02-07T06:40:12.872Z,39.60
2019-02-07T06:42:44.050Z,39.17
2019-02-07T06:45:30.351Z,39.53
2019-02-07T06:48:18.114Z,37.90
2019-02-07T06:50:58.065Z,36.20
2019-02-07T06:53:29.189Z,36.33
2019-02-07T06:56:00.483Z,34.90
2019-02-07T06:58:40.962Z,34.03
2019-02-07T07:01:28.258Z,34.70
2019-02-07T07:03:59.311Z,34.77
2019-02-07T07:06:46.943Z,34.67
2019-02-07T07:09:20.786Z,34.03
2019-02-07T07:12:07.263Z,32.10
2019-02-07T07:14:38.710Z,34.00
2019-02-07T07:17:24.937Z,33.67
2019-02-07T07:20:04.447Z,35.63
2019-02-07T07:22:52.222Z,33.67
2019-02-07T07:25:23.465Z,31.90
2019-02-07T07:28:00.435Z,31.27
2019-02-07T07:30:37.552Z,31.13
2019-02-07T07:33:12.024Z,32.00
2019-02-07T07:35:43.214Z,29.80
2019-02-07T07:38:16.957Z,32.37
2019-02-07T07:40:48.125Z,30.23
2019-02-07T07:43:34.232Z,31.40
2019-02-07T07:46:11.529Z,30.33
2019-02-07T07:48:49.004Z,28.80
2019-02-07T07:51:32.254Z,28.87
2019-02-07T07:54:20.544Z,28.60
2019-02-07T07:56:52.656Z,26.83
2019-02-07T07:59:33.214Z,26.90
2019-02-07T08:02:16.260Z,25.43
2019-02-07T08:05:06.077Z,25.47
2019-02-07T08:07:52.320Z,24.87
2019-02-07T08:10:28.153Z,24.23
2019-02-07T08:13:03.610Z,24.27
2019-02-07T08:15:40.793Z,24.60
2019-02-07T08:18:27.223Z,24.50
2019-02-07T08:21:14.888Z,24.40
2019-02-07T08:23:51.748Z,23.13
2019-02-07T08:29:23.623Z,22.57
2019-02-07T08:32:03.747Z,21.03
2019-02-07T08:34:41.491Z,18.83
2019-02-07T08:37:18.920Z,16.27
2019-02-07T08:39:56.251Z,13.67
2019-02-07T08:42:36.281Z,12.93
2019-02-07T08:45:13.047Z,12.70
2019-02-07T08:47:58.600Z,10.97
2019-02-07T08:50:37.958Z,10.53
2019-02-07T08:53:09.197Z,12.20
2019-02-07T08:55:46.384Z,12.60
2019-02-07T08:58:30.000Z,9.80
2019-02-07T09:01:01.375Z,16.87
2019-02-07T09:03:41.471Z,13.83
2019-02-07T09:06:30.749Z,18.87
2019-02-07T09:09:08.192Z,16.27
2019-02-07T09:11:45.266Z,15.53
2019-02-07T09:14:32.719Z,12.07
2019-02-07T09:17:07.299Z,20.23
2019-02-07T09:19:50.647Z,18.03
2019-02-07T09:22:38.537Z,21.10
2019-02-07T09:25:18.992Z,17.30
2019-02-07T09:28:06.326Z,16.63
2019-02-07T09:30:55.751Z,19.10
2019-02-07T09:33:44.716Z,17.77
2019-02-07T09:36:33.941Z,14.10
2019-02-07T09:39:22.133Z,17.47
2019-02-07T09:42:15.323Z,18.27
2019-02-07T09:45:02.812Z,21.70
2019-02-07T09:47:43.050Z,18.70
2019-02-07T09:50:32.592Z,18.40
2019-02-07T09:53:23.562Z,15.83
2019-02-07T09:56:01.732Z,10.90
2019-02-07T09:58:47.972Z,19.90
2019-02-07T10:01:37.444Z,19.67
2019-02-07T10:04:15.413Z,15.70
2019-02-07T10:06:49.318Z,16.33
2019-02-07T10:09:26.451Z,17.93
2019-02-07T10:12:00.484Z,17.97
2019-02-07T10:14:31.630Z,11.30
2019-02-07T10:17:09.525Z,17.83
2019-02-07T10:19:40.680Z,13.80
2019-02-07T10:22:11.957Z,15.03
2019-02-07T10:24:49.254Z,18.90
2019-02-07T10:27:20.453Z,12.77
2019-02-07T10:29:57.339Z,16.87
2019-02-07T10:32:46.788Z,10.83
2019-02-07T10:35:27.156Z,15.80
2019-02-07T10:38:16.362Z,15.43
2019-02-07T10:40:56.739Z,16.07
2019-02-07T10:43:30.649Z,15.43
2019-02-07T10:46:04.744Z,20.53
2019-02-07T10:48:44.191Z,17.47
2019-02-07T10:51:20.825Z,14.53
2019-02-07T10:53:59.801Z,17.00
2019-02-07T10:56:34.096Z,11.90
2019-02-07T10:59:17.685Z,17.53
2019-02-07T11:02:02.263Z,16.90
2019-02-07T11:04:39.267Z,11.53
2019-02-07T11:07:19.527Z,12.10
2019-02-07T11:09:53.471Z,13.37
2019-02-07T11:12:30.818Z,15.70
2019-02-07T11:15:04.759Z,13.40
2019-02-07T11:17:42.464Z,17.57
2019-02-07T11:20:32.500Z,15.63
2019-02-07T11:23:22.551Z,16.17
2019-02-07T11:26:05.967Z,13.73
2019-02-07T11:28:37.290Z,10.13
2019-02-07T11:31:11.624Z,17.07
2019-02-07T11:33:49.070Z,13.27
2019-02-07T11:36:20.272Z,14.80
2019-02-07T11:38:51.542Z,13.87
2019-02-07T11:41:28.691Z,15.83
2019-02-07T11:43:59.791Z,12.23
2019-02-07T11:47:05.225Z,14.87
2019-02-07T11:49:31.729Z,12.13
2019-02-07T11:52:11.816Z,15.40
2019-02-07T11:54:48.496Z,13.07
2019-02-07T11:57:22.472Z,12.27
2019-02-07T11:59:53.922Z,11.03
2019-02-07T12:02:25.124Z,15.17
2019-02-07T12:05:11.302Z,17.07
2019-02-07T12:07:48.533Z,15.27
2019-02-07T12:10:24.004Z,15.97
2019-02-07T12:12:57.925Z,11.80
2019-02-07T12:15:29.040Z,13.57
2019-02-07T12:18:12.324Z,16.50
2019-02-07T12:20:49.219Z,14.00
2019-02-07T12:23:38.868Z,15.37
2019-02-07T12:26:10.011Z,16.73
2019-02-07T12:28:57.671Z,14.27
2019-02-07T12:31:45.093Z,16.67
2019-02-07T12:34:23.796Z,13.80
2019-02-07T12:37:03.828Z,13.67
2019-02-07T12:39:44.093Z,11.33
2019-02-07T12:42:24.169Z,15.30
2019-02-07T12:45:00.896Z,10.23
2019-02-07T12:47:31.981Z,9.23
2019-02-07T12:50:03.114Z,15.40
2019-02-07T12:52:50.951Z,12.30
2019-02-07T12:55:22.134Z,13.53
2019-02-07T12:58:10.222Z,10.10
2019-02-07T13:00:44.505Z,10.97
2019-02-07T13:03:31.875Z,13.80
2019-02-07T13:06:03.119Z,11.57
2019-02-07T13:08:41.456Z,12.23
2019-02-07T13:11:17.075Z,10.23
2019-02-07T13:13:57.068Z,14.73
2019-02-07T13:16:41.123Z,11.57
2019-02-07T13:19:15.434Z,14.00
2019-02-07T13:22:02.803Z,12.77
2019-02-07T13:24:42.746Z,15.97
2019-02-07T13:27:30.477Z,18.37
2019-02-07T13:30:01.695Z,14.47
2019-02-07T13:32:32.857Z,11.20
2019-02-07T13:35:20.568Z,12.57
2019-02-07T13:38:08.231Z,12.50
2019-02-07T13:40:51.534Z,12.20
2019-02-07T13:43:36.483Z,12.90
2019-02-07T13:46:23.115Z,7.13
2019-02-07T13:49:11.165Z,16.90
2019-02-07T13:51:45.638Z,11.57
2019-02-07T13:54:18.311Z,9.03
2019-02-07T13:56:52.191Z,10.17
2019-02-07T13:59:29.175Z,10.87
2019-02-07T14:02:12.299Z,11.57
2019-02-07T14:04:58.167Z,10.77
2019-02-07T14:07:32.098Z,9.83
2019-02-07T14:10:03.223Z,9.00
2019-02-07T14:12:37.047Z,9.47
2019-02-07T14:15:27.595Z,14.87
2019-02-07T14:18:16.612Z,13.87
2019-02-07T14:20:49.647Z,14.40
2019-02-07T14:23:23.931Z,13.57
2019-02-07T14:26:10.104Z,13.40
2019-02-07T14:28:53.707Z,12.10
2019-02-07T14:31:41.399Z,13.20
2019-02-07T14:34:12.596Z,11.17
2019-02-07T14:36:45.556Z,10.70
2019-02-07T14:39:34.250Z,11.83
2019-02-07T14:42:05.348Z,8.37
2019-02-07T14:44:39.627Z,14.03
2019-02-07T14:47:09.170Z,8.00
2019-02-07T14:49:39.098Z,15.20
2019-02-07T14:52:08.773Z,11.47
2019-02-07T14:54:38.373Z,11.57
2019-02-07T14:57:07.894Z,12.03
2019-02-07T14:59:37.587Z,14.17
2019-02-07T15:02:07.672Z,11.50
2019-02-07T15:04:37.519Z,9.90
2019-02-07T15:07:07.026Z,9.43
2019-02-07T15:09:36.747Z,10.00
2019-02-07T15:12:06.410Z,12.10
2019-02-07T15:14:35.906Z,13.17
2019-02-07T15:17:05.415Z,12.67
2019-02-07T15:19:35.087Z,15.50
2019-02-07T15:22:04.876Z,11.10
2019-02-07T15:24:34.352Z,11.60
2019-02-07T15:27:03.859Z,12.80
2019-02-07T15:29:33.495Z,13.27
2019-02-07T15:32:03.138Z,17.60
2019-02-07T15:34:32.852Z,10.90
2019-02-07T15:37:02.386Z,14.50
2019-02-07T15:39:31.978Z,14.93
2019-02-07T15:42:01.552Z,14.47
2019-02-07T15:44:31.659Z,17.00
2019-02-07T15:47:01.311Z,10.63
2019-02-07T15:49:30.981Z,10.30
2019-02-07T15:52:00.486Z,15.17
2019-02-07T15:54:30.706Z,10.90
2019-02-07T15:57:00.306Z,14.00
2019-02-07T15:59:31.788Z,10.33
2019-02-07T16:02:03.274Z,13.20
2019-02-07T16:04:32.971Z,14.97
2019-02-07T16:07:02.481Z,12.70
2019-02-07T16:09:32.034Z,11.43
2019-02-07T16:12:01.541Z,11.50
2019-02-07T16:14:31.320Z,11.90
2019-02-07T16:17:01.167Z,12.20
2019-02-07T16:19:31.272Z,7.90
2019-02-07T16:22:00.700Z,11.03
2019-02-07T16:24:31.112Z,4.87
2019-02-07T16:27:00.585Z,7.40
2019-02-07T16:29:30.200Z,9.67
2019-02-07T16:32:00.015Z,4.67
2019-02-07T16:34:29.615Z,6.63
2019-02-07T16:36:59.144Z,6.47
2019-02-07T16:39:28.629Z,7.03
2019-02-07T16:42:05.872Z,4.97
2019-02-07T16:44:29.382Z,3.27
2019-02-07T16:46:58.848Z,4.43
2019-02-07T16:49:28.778Z,3.30
2019-02-07T16:51:58.348Z,3.17
2019-02-07T16:54:27.961Z,2.57
2019-02-07T16:56:57.508Z,4.03
2019-02-07T16:59:27.030Z,4.60
2019-02-07T17:01:56.590Z,6.20
2019-02-07T17:04:26.031Z,2.70
2019-02-07T17:06:55.571Z,6.60
2019-02-07T17:09:27.020Z,5.47
2019-02-07T17:11:56.551Z,7.90
2019-02-07T17:14:26.247Z,9.30
2019-02-07T17:16:55.776Z,7.73
2019-02-07T17:19:25.281Z,6.57
2019-02-07T17:21:55.035Z,8.97
2019-02-07T17:24:24.591Z,10.93
2019-02-07T17:26:54.132Z,7.50
2019-02-07T17:29:23.992Z,9.10
2019-02-07T17:31:53.391Z,8.63
2019-02-07T17:34:23.513Z,10.43
2019-02-07T17:36:54.590Z,10.03
2019-02-07T17:39:25.807Z,10.50
2019-02-07T17:41:55.436Z,10.13
2019-02-07T17:44:24.932Z,8.67
2019-02-07T17:46:54.437Z,10.23
2019-02-07T17:49:24.109Z,12.37
2019-02-07T17:51:53.652Z,10.23
2019-02-07T17:54:23.221Z,10.07
2019-02-07T17:56:52.679Z,9.83
2019-02-07T17:59:22.734Z,11.23
2019-02-07T18:01:52.359Z,12.80
2019-02-07T18:04:21.891Z,13.00
2019-02-07T18:06:51.494Z,10.73
2019-02-07T18:09:20.886Z,12.37
2019-02-07T18:11:50.549Z,10.53
2019-02-07T18:14:20.095Z,15.27
2019-02-07T18:16:49.564Z,10.73
2019-02-07T18:19:19.205Z,11.17
2019-02-07T18:21:48.684Z,12.70
2019-02-07T18:24:18.235Z,11.53
2019-02-07T18:26:47.873Z,13.87
2019-02-07T18:29:17.591Z,13.07
2019-02-07T18:31:47.072Z,15.50
2019-02-07T18:34:16.653Z,12.97
2019-02-07T18:36:46.130Z,13.30
2019-02-07T18:39:15.665Z,13.60
2019-02-07T18:41:45.074Z,16.20
2019-02-07T18:44:14.805Z,12.70
2019-02-07T18:46:44.288Z,16.10
2019-02-07T18:49:13.634Z,13.57
2019-02-07T18:51:45.733Z,11.90
2019-02-07T18:54:14.308Z,13.37
2019-02-07T18:56:43.957Z,14.73
2019-02-07T18:59:13.686Z,11.60
2019-02-07T19:01:44.895Z,14.67
2019-02-07T19:04:14.395Z,10.30
2019-02-07T19:06:43.811Z,14.57
2019-02-07T19:09:13.281Z,14.20
2019-02-07T19:11:42.848Z,14.73
2019-02-07T19:14:12.348Z,12.93
2019-02-07T19:16:41.823Z,15.80
2019-02-07T19:19:11.335Z,19.13
2019-02-07T19:21:40.890Z,15.10
2019-02-07T19:24:10.323Z,14.23
2019-02-07T19:26:39.807Z,17.80
2019-02-07T19:29:09.618Z,15.17
2019-02-07T19:31:39.449Z,15.27
2019-02-07T19:34:08.946Z,14.50
2019-02-07T19:36:38.582Z,10.73
2019-02-07T19:39:09.451Z,17.27
2019-02-07T19:41:39.366Z,8.97
2019-02-07T19:44:09.124Z,17.67
2019-02-07T19:46:38.738Z,14.07
2019-02-07T19:49:08.316Z,14.03
2019-02-07T19:51:37.807Z,16.00
2019-02-07T19:54:07.699Z,12.77
2019-02-07T19:56:37.180Z,18.77
2019-02-07T19:59:07.101Z,13.10
2019-02-07T20:01:36.553Z,14.03
2019-02-07T20:04:06.468Z,16.33
2019-02-07T20:06:35.898Z,11.33
2019-02-07T20:09:08.382Z,10.20
2019-02-07T20:11:37.816Z,14.17
2019-02-07T20:14:07.420Z,13.47
2019-02-07T20:16:36.958Z,12.60
2019-02-07T20:19:06.666Z,13.70
2019-02-07T20:21:36.095Z,14.33
2019-02-07T20:24:05.800Z,13.20
2019-02-07T20:26:35.308Z,14.63
2019-02-07T20:29:05.224Z,9.40
2019-02-07T20:31:34.662Z,13.70
2019-02-07T20:34:06.234Z,12.77
2019-02-07T20:36:35.771Z,12.93
2019-02-07T20:39:07.574Z,12.13
2019-02-07T20:41:37.025Z,11.57
2019-02-07T20:44:06.702Z,8.03
2019-02-07T20:46:36.147Z,10.73
2019-02-07T20:49:06.955Z,11.97
2019-02-07T20:51:36.386Z,10.07
2019-02-07T20:54:07.468Z,11.73
2019-02-07T20:56:37.047Z,8.80
2019-02-07T20:59:06.597Z,12.93
2019-02-07T21:01:36.331Z,12.23
2019-02-07T21:04:07.347Z,10.23
2019-02-07T21:06:36.788Z,12.07
2019-02-07T21:09:07.910Z,10.57
2019-02-07T21:11:37.427Z,11.93
2019-02-07T21:14:07.325Z,9.73
2019-02-07T21:16:37.023Z,10.83
2019-02-07T21:19:06.551Z,11.77
2019-02-07T21:21:36.031Z,7.87
2019-02-07T21:24:06.073Z,12.53
2019-02-07T21:26:35.607Z,9.90
2019-02-07T21:29:05.227Z,11.67
2019-02-07T21:31:34.702Z,14.10
2019-02-07T21:34:04.523Z,12.33
2019-02-07T21:36:33.989Z,13.07
2019-02-07T21:39:05.115Z,13.70
2019-02-07T21:41:34.663Z,19.97
2019-02-07T21:44:04.301Z,14.17
2019-02-07T21:46:33.836Z,16.07
2019-02-07T21:49:03.585Z,12.53
2019-02-07T21:51:33.069Z,16.07
2019-02-07T21:54:02.607Z,13.07
2019-02-07T21:56:32.116Z,16.67
2019-02-07T21:59:02.471Z,16.50
2019-02-07T22:01:32.162Z,13.93
2019-02-07T22:04:01.889Z,15.97
2019-02-07T22:06:31.339Z,15.33
2019-02-07T22:09:01.071Z,18.57
2019-02-07T22:11:31.582Z,19.07
2019-02-07T22:14:01.123Z,18.60
2019-02-07T22:16:32.012Z,12.67
2019-02-07T22:19:01.550Z,17.07
2019-02-07T22:21:30.990Z,14.70
2019-02-07T22:24:00.520Z,14.33
2019-02-07T22:26:30.194Z,14.73
2019-02-07T22:28:59.667Z,17.73
2019-02-07T22:31:29.206Z,15.53
2019-02-07T22:33:58.810Z,18.03
2019-02-07T22:36:28.247Z,13.93
2019-02-07T22:39:17.047Z,16.10
2019-02-07T22:41:46.760Z,16.77
2019-02-07T22:44:17.058Z,19.27
2019-02-07T22:46:46.614Z,16.03
2019-02-07T22:49:16.192Z,14.83
2019-02-07T22:51:45.821Z,15.80
2019-02-07T22:54:15.350Z,18.43
2019-02-07T22:56:45.756Z,17.33
2019-02-07T22:59:15.897Z,19.07
2019-02-07T23:01:46.867Z,14.43
2019-02-07T23:04:16.418Z,16.17
2019-02-07T23:06:47.641Z,19.97
2019-02-07T23:09:17.527Z,18.17
2019-02-07T23:11:47.232Z,16.17
2019-02-07T23:14:16.708Z,14.27
2019-02-07T23:16:46.290Z,11.43
2019-02-07T23:19:15.862Z,10.47
2019-02-07T23:21:45.851Z,15.80
2019-02-07T23:24:15.307Z,15.33
2019-02-07T23:26:44.742Z,18.00
2019-02-07T23:29:14.215Z,15.97
2019-02-07T23:31:43.806Z,12.20
2019-02-07T23:34:13.338Z,13.23
2019-02-07T23:36:42.825Z,13.43
2019-02-07T23:39:13.081Z,16.80
2019-02-07T23:41:42.652Z,12.30
2019-02-07T23:44:12.186Z,12.60
2019-02-07T23:46:41.682Z,18.83
2019-02-07T23:49:11.202Z,14.47
2019-02-07T23:51:40.771Z,15.73
2019-02-07T23:54:10.431Z,17.00
2019-02-07T23:56:39.930Z,17.00
2019-02-07T23:59:10.097Z,18.23
